createdAt,value
2022-11-19T00:02:00.946Z,11.38
2022-11-19T00:04:30.056Z,11.38
2022-11-19T00:06:58.474Z,11.40
2022-11-19T00:09:26.435Z,11.50
2022-11-19T00:12:11.887Z,11.59
2022-11-19T00:14:39.632Z,11.50
2022-11-19T00:17:08.633Z,11.38
2022-11-19T00:19:37.700Z,11.36
2022-11-19T00:22:05.469Z,11.34
2022-11-19T00:24:33.255Z,11.35
2022-11-19T00:27:00.927Z,11.37
2022-11-19T00:29:28.663Z,11.50
2022-11-19T00:31:56.319Z,11.42
2022-11-19T00:34:24.038Z,11.29
2022-11-19T00:36:53.059Z,11.30
2022-11-19T00:39:21.248Z,11.30
2022-11-19T00:41:49.356Z,11.31
2022-11-19T00:44:17.064Z,11.38
2022-11-19T00:46:44.730Z,11.38
2022-11-19T00:49:12.455Z,11.34
2022-11-19T00:51:40.195Z,11.35
2022-11-19T00:54:09.208Z,11.33
2022-11-19T00:56:36.887Z,11.36
2022-11-19T00:59:05.606Z,11.38
2022-11-19T01:01:33.330Z,11.36
2022-11-19T01:04:01.090Z,11.35
2022-11-19T01:06:28.763Z,11.35
2022-11-19T01:08:56.404Z,11.23
2022-11-19T01:11:27.862Z,11.14
2022-11-19T01:13:55.981Z,11.15
2022-11-19T01:16:26.996Z,11.17
2022-11-19T01:18:54.989Z,11.22
2022-11-19T01:21:24.823Z,11.27
2022-11-19T01:23:52.670Z,11.30
2022-11-19T01:26:21.121Z,11.27
2022-11-19T01:28:52.641Z,11.19
2022-11-19T01:31:22.752Z,11.10
2022-11-19T01:33:51.502Z,11.19
2022-11-19T01:36:21.948Z,11.26
2022-11-19T01:38:50.971Z,11.19
2022-11-19T01:41:19.188Z,11.18
2022-11-19T01:43:49.418Z,11.14
2022-11-19T01:46:20.922Z,11.16
2022-11-19T01:48:53.110Z,11.25
2022-11-19T01:51:25.988Z,11.34
2022-11-19T01:53:56.910Z,11.39
2022-11-19T01:56:26.060Z,11.39
2022-11-19T01:58:56.653Z,11.41
2022-11-19T02:01:25.889Z,11.36
2022-11-19T02:03:54.028Z,11.36
2022-11-19T02:06:22.053Z,11.34
2022-11-19T02:08:51.611Z,11.33
2022-11-19T02:11:33.816Z,11.27
2022-11-19T02:14:14.809Z,11.23
2022-11-19T02:16:53.333Z,11.24
2022-11-19T02:19:53.314Z,11.19
2022-11-19T02:22:39.401Z,11.23
2022-11-19T02:25:15.221Z,11.10
2022-11-19T02:28:05.733Z,10.99
2022-11-19T02:30:38.011Z,10.92
2022-11-19T02:33:10.232Z,10.97
2022-11-19T02:35:47.505Z,11.10
2022-11-19T02:38:25.161Z,11.10
2022-11-19T02:40:57.750Z,11.01
2022-11-19T02:43:33.944Z,11.02
2022-11-19T02:46:09.281Z,10.99
2022-11-19T02:48:40.088Z,10.98
2022-11-19T02:51:09.146Z,10.93
2022-11-19T02:53:37.091Z,10.86
2022-11-19T02:56:13.596Z,10.92
2022-11-19T02:59:04.792Z,10.99
2022-11-19T03:01:54.519Z,11.11
2022-11-19T03:04:31.107Z,11.23
2022-11-19T03:07:02.470Z,11.31
2022-11-19T03:09:32.154Z,11.33
2022-11-19T03:12:09.574Z,11.39
2022-11-19T03:15:03.441Z,11.41
2022-11-19T03:17:41.568Z,11.43
2022-11-19T03:20:17.263Z,11.44
2022-11-19T03:22:53.294Z,11.48
2022-11-19T03:25:27.466Z,11.32
2022-11-19T03:28:01.788Z,11.11
2022-11-19T03:30:31.114Z,11.06
2022-11-19T03:33:04.924Z,10.96
2022-11-19T03:35:37.508Z,10.91
2022-11-19T03:38:09.457Z,10.88
2022-11-19T03:40:38.530Z,10.83
2022-11-19T03:43:10.505Z,10.81
2022-11-19T03:45:43.471Z,10.89
2022-11-19T03:48:14.611Z,11.03
2022-11-19T03:50:49.457Z,11.17
2022-11-19T03:53:18.687Z,11.28
2022-11-19T03:55:50.181Z,11.31
2022-11-19T03:58:18.091Z,11.27
2022-11-19T04:00:45.759Z,11.18
2022-11-19T04:03:14.848Z,11.18
2022-11-19T04:05:42.485Z,11.22
2022-11-19T04:08:10.408Z,11.20
2022-11-19T04:10:38.136Z,11.17
2022-11-19T04:13:05.797Z,11.16
2022-11-19T04:15:33.523Z,11.11
2022-11-19T04:18:16.546Z,11.07
2022-11-19T04:20:45.054Z,11.04
2022-11-19T04:23:12.768Z,11.01
2022-11-19T04:25:41.420Z,11.01
2022-11-19T04:28:09.148Z,10.94
2022-11-19T04:30:36.853Z,10.93
2022-11-19T04:33:05.097Z,10.85
2022-11-19T04:35:34.316Z,10.76
2022-11-19T04:38:02.000Z,10.68
2022-11-19T04:40:29.758Z,10.61
2022-11-19T04:42:57.521Z,10.61
2022-11-19T04:45:25.170Z,10.52
2022-11-19T04:47:52.778Z,10.39
2022-11-19T04:50:20.453Z,10.40
2022-11-19T04:52:49.497Z,10.33
2022-11-19T04:55:17.287Z,10.28
2022-11-19T04:57:44.997Z,10.30
2022-11-19T05:00:13.965Z,10.23
2022-11-19T05:02:41.587Z,10.21
2022-11-19T05:05:09.959Z,10.07
2022-11-19T05:07:37.663Z,10.04
2022-11-19T05:10:07.490Z,9.99
2022-11-19T05:12:35.440Z,9.99
2022-11-19T05:15:03.126Z,9.90
2022-11-19T05:17:30.745Z,9.80
2022-11-19T05:19:59.972Z,9.67
2022-11-19T05:22:27.812Z,9.70
2022-11-19T05:24:55.456Z,9.72
2022-11-19T05:27:24.450Z,9.64
2022-11-19T05:29:52.059Z,9.60
2022-11-19T05:32:19.746Z,9.69
2022-11-19T05:34:47.556Z,9.71
2022-11-19T05:37:15.426Z,9.72
2022-11-19T05:39:43.307Z,9.78
2022-11-19T05:42:10.973Z,9.87
2022-11-19T05:44:39.980Z,9.79
2022-11-19T05:47:07.593Z,9.71
2022-11-19T05:49:35.250Z,9.68
2022-11-19T05:52:02.955Z,9.59
2022-11-19T05:54:30.690Z,9.60
2022-11-19T05:56:58.380Z,9.69
2022-11-19T05:59:26.042Z,9.59
2022-11-19T06:01:55.048Z,9.57
2022-11-19T06:04:22.679Z,9.58
2022-11-19T06:06:50.568Z,9.55
2022-11-19T06:09:18.443Z,9.67
2022-11-19T06:11:50.236Z,9.64
2022-11-19T06:14:19.077Z,9.53
2022-11-19T06:16:46.858Z,9.55
2022-11-19T06:19:16.052Z,9.49
2022-11-19T06:21:43.880Z,9.46
2022-11-19T06:24:14.007Z,9.58
2022-11-19T06:26:42.077Z,9.60
2022-11-19T06:29:10.584Z,9.46
2022-11-19T06:31:38.353Z,9.40
2022-11-19T06:34:06.111Z,9.38
2022-11-19T06:36:40.424Z,9.38
2022-11-19T06:39:11.130Z,9.33
2022-11-19T06:41:38.808Z,9.30
2022-11-19T06:44:06.455Z,9.35
2022-11-19T06:46:34.223Z,9.33
2022-11-19T06:49:03.680Z,9.39
2022-11-19T06:51:31.451Z,9.41
2022-11-19T06:54:00.614Z,9.36
2022-11-19T06:56:28.281Z,9.33
2022-11-19T06:58:57.392Z,9.38
2022-11-19T07:01:25.579Z,9.44
2022-11-19T07:03:53.329Z,9.57
2022-11-19T07:06:21.124Z,9.51
2022-11-19T07:08:48.996Z,9.46
2022-11-19T07:11:27.156Z,9.45
2022-11-19T07:13:59.075Z,9.42
2022-11-19T07:16:31.091Z,9.42
2022-11-19T07:19:00.062Z,9.39
2022-11-19T07:21:28.765Z,9.40
2022-11-19T07:23:56.685Z,9.37
2022-11-19T07:26:26.836Z,9.28
2022-11-19T07:28:54.750Z,9.25
2022-11-19T07:31:23.123Z,9.25
2022-11-19T07:33:50.838Z,9.22
2022-11-19T07:36:18.837Z,9.17
2022-11-19T07:38:47.087Z,9.16
2022-11-19T07:41:28.832Z,9.16
2022-11-19T07:43:57.964Z,9.16
2022-11-19T07:46:25.848Z,9.07
2022-11-19T07:48:55.359Z,9.08
2022-11-19T07:51:23.512Z,9.03
2022-11-19T07:53:51.323Z,9.00
2022-11-19T07:56:19.407Z,8.97
2022-11-19T07:58:47.204Z,8.98
2022-11-19T08:01:18.933Z,8.98
2022-11-19T08:03:50.582Z,9.01
2022-11-19T08:06:23.283Z,9.07
2022-11-19T08:08:50.949Z,9.11
2022-11-19T08:11:19.276Z,9.11
2022-11-19T08:13:47.121Z,9.01
2022-11-19T08:16:37.605Z,8.96
2022-11-19T08:19:07.210Z,8.97
2022-11-19T08:21:35.461Z,9.06
2022-11-19T08:24:03.255Z,9.02
2022-11-19T08:26:30.913Z,8.99
2022-11-19T08:29:00.813Z,8.99
2022-11-19T08:31:30.098Z,8.98
2022-11-19T08:33:57.808Z,8.93
2022-11-19T08:36:25.519Z,8.95
2022-11-19T08:38:53.186Z,8.86
2022-11-19T08:41:38.227Z,8.87
2022-11-19T08:44:06.302Z,8.86
2022-11-19T08:46:35.567Z,8.83
2022-11-19T08:49:03.162Z,8.82
2022-11-19T08:51:30.884Z,8.74
2022-11-19T08:53:58.542Z,8.68
2022-11-19T08:56:26.274Z,8.68
2022-11-19T08:58:57.353Z,8.61
2022-11-19T09:01:27.588Z,8.65
2022-11-19T09:03:56.629Z,8.61
2022-11-19T09:06:24.384Z,8.61
2022-11-19T09:08:52.020Z,8.67
2022-11-19T09:11:21.627Z,8.72
2022-11-19T09:13:49.556Z,8.66
2022-11-19T09:16:17.475Z,8.64
2022-11-19T09:18:45.195Z,8.60
2022-11-19T09:21:14.259Z,8.58
2022-11-19T09:23:42.687Z,8.56
2022-11-19T09:26:15.894Z,8.65
2022-11-19T09:28:44.275Z,8.65
2022-11-19T09:31:14.460Z,8.58
2022-11-19T09:33:43.827Z,8.59
2022-11-19T09:36:12.317Z,8.58
2022-11-19T09:38:41.671Z,8.62
2022-11-19T09:41:44.734Z,8.57
2022-11-19T09:44:23.581Z,8.49
2022-11-19T09:47:02.257Z,8.52
2022-11-19T09:49:35.336Z,8.49
2022-11-19T09:52:11.125Z,8.46
2022-11-19T09:54:45.630Z,8.49
2022-11-19T09:57:19.444Z,8.53
2022-11-19T09:59:48.757Z,8.50
2022-11-19T10:02:18.999Z,8.40
2022-11-19T10:04:48.227Z,8.34
2022-11-19T10:07:31.203Z,8.42
2022-11-19T10:10:16.256Z,8.40
2022-11-19T10:13:12.741Z,8.39
2022-11-19T10:15:58.728Z,8.37
2022-11-19T10:18:36.679Z,8.36
2022-11-19T10:21:10.773Z,8.37
2022-11-19T10:23:50.460Z,8.23
2022-11-19T10:26:25.534Z,8.20
2022-11-19T10:28:56.964Z,8.21
2022-11-19T10:31:35.857Z,8.28
2022-11-19T10:34:12.826Z,8.25
2022-11-19T10:36:44.409Z,8.16
2022-11-19T10:39:19.413Z,8.16
2022-11-19T10:41:54.937Z,8.14
2022-11-19T10:44:39.992Z,8.12
2022-11-19T10:47:11.737Z,8.15
2022-11-19T10:49:41.855Z,8.18
2022-11-19T10:52:18.840Z,8.23
2022-11-19T10:54:48.522Z,8.22
2022-11-19T10:57:20.158Z,8.17
2022-11-19T10:59:50.640Z,8.14
2022-11-19T11:02:27.987Z,8.12
2022-11-19T11:05:14.520Z,8.15
2022-11-19T11:07:57.085Z,8.09
2022-11-19T11:10:46.345Z,8.07
2022-11-19T11:13:46.415Z,8.12
2022-11-19T11:16:18.455Z,8.14
2022-11-19T11:18:47.579Z,8.09
2022-11-19T11:21:33.109Z,8.14
2022-11-19T11:24:02.693Z,8.15
2022-11-19T11:26:33.619Z,8.22
2022-11-19T11:29:05.337Z,8.27
2022-11-19T11:31:36.787Z,8.28
2022-11-19T11:34:06.031Z,8.23
2022-11-19T11:36:36.728Z,8.20
2022-11-19T11:39:06.266Z,8.15
2022-11-19T11:44:28.668Z,8.04
2022-11-19T11:46:59.535Z,8.08
2022-11-19T11:49:31.007Z,8.07
2022-11-19T11:52:17.627Z,8.05
2022-11-19T11:54:57.499Z,8.08
2022-11-19T11:57:27.592Z,8.12
2022-11-19T11:59:56.966Z,8.13
2022-11-19T12:02:30.263Z,8.15
2022-11-19T12:05:02.064Z,8.12
2022-11-19T12:07:47.062Z,8.26
2022-11-19T12:10:25.412Z,8.27
2022-11-19T12:13:08.500Z,8.28
2022-11-19T12:15:47.042Z,8.28
2022-11-19T12:18:27.538Z,8.26
2022-11-19T12:21:02.969Z,8.20
2022-11-19T12:23:53.493Z,8.21
2022-11-19T12:26:32.294Z,8.19
2022-11-19T12:29:13.384Z,8.21
2022-11-19T12:31:56.539Z,8.19
2022-11-19T12:34:47.887Z,8.24
2022-11-19T12:37:28.527Z,8.26
2022-11-19T12:40:01.383Z,8.20
2022-11-19T12:42:41.357Z,8.19
2022-11-19T12:45:18.430Z,8.09
2022-11-19T12:48:12.898Z,8.16
2022-11-19T12:50:51.725Z,8.10
2022-11-19T12:53:33.614Z,8.11
2022-11-19T12:56:12.429Z,8.11
2022-11-19T12:58:51.490Z,8.13
2022-11-19T13:01:24.708Z,8.09
2022-11-19T13:04:04.234Z,8.08
2022-11-19T13:06:37.137Z,8.14
2022-11-19T13:09:10.360Z,8.20
2022-11-19T13:11:43.739Z,8.25
2022-11-19T13:14:18.817Z,8.20
2022-11-19T13:16:47.207Z,8.11
2022-11-19T13:19:25.937Z,7.99
2022-11-19T13:21:58.455Z,7.92
2022-11-19T13:24:32.378Z,8.04
2022-11-19T13:27:04.901Z,8.10
2022-11-19T13:29:38.385Z,8.11
2022-11-19T13:32:16.612Z,8.05
2022-11-19T13:35:00.841Z,8.02
2022-11-19T13:37:40.239Z,8.09
2022-11-19T13:40:20.660Z,8.19
2022-11-19T13:46:06.526Z,8.17
2022-11-19T13:48:39.927Z,8.17
2022-11-19T13:51:21.249Z,8.18
2022-11-19T13:53:49.299Z,8.19
2022-11-19T13:56:18.254Z,8.11
2022-11-19T13:58:48.566Z,8.15
2022-11-19T14:01:32.042Z,8.12
2022-11-19T14:04:18.088Z,8.07
2022-11-19T14:07:00.463Z,7.99
2022-11-19T14:09:38.568Z,8.04
2022-11-19T14:12:46.136Z,7.96
2022-11-19T14:15:50.425Z,7.95
2022-11-19T14:18:43.544Z,7.91
2022-11-19T14:22:10.689Z,7.93
2022-11-19T14:25:15.843Z,7.89
2022-11-19T14:27:44.510Z,7.90
2022-11-19T14:30:17.767Z,7.86
2022-11-19T14:32:51.653Z,7.90
2022-11-19T14:35:30.749Z,7.93
2022-11-19T14:38:10.997Z,7.98
2022-11-19T14:40:43.720Z,7.99
2022-11-19T14:43:42.149Z,8.00
2022-11-19T14:46:33.592Z,7.96
2022-11-19T14:49:05.889Z,7.94
2022-11-19T14:51:39.106Z,8.00
2022-11-19T14:54:30.067Z,8.03
2022-11-19T14:57:25.551Z,7.99
2022-11-19T14:59:56.334Z,7.94
2022-11-19T15:02:27.587Z,7.88
2022-11-19T15:05:02.771Z,7.86
2022-11-19T15:07:40.972Z,7.89
2022-11-19T15:10:29.171Z,7.79
2022-11-19T15:13:22.721Z,7.80
2022-11-19T15:15:53.801Z,7.79
2022-11-19T15:19:01.948Z,7.80
2022-11-19T15:22:06.791Z,7.68
2022-11-19T15:24:50.728Z,7.58
2022-11-19T15:27:28.028Z,7.65
2022-11-19T15:30:07.493Z,7.62
2022-11-19T15:33:03.406Z,7.56
2022-11-19T15:36:05.387Z,7.68
2022-11-19T15:38:39.589Z,7.66
2022-11-19T15:41:13.371Z,7.68
2022-11-19T15:43:46.957Z,7.61
2022-11-19T15:46:20.096Z,7.64
2022-11-19T15:48:58.635Z,7.63
2022-11-19T15:51:26.637Z,7.72
2022-11-19T15:54:01.340Z,7.69
2022-11-19T15:56:33.003Z,7.60
2022-11-19T15:59:03.339Z,7.60
2022-11-19T16:01:34.344Z,7.60
2022-11-19T16:04:07.510Z,7.70
2022-11-19T16:06:37.588Z,7.71
2022-11-19T16:09:05.923Z,7.60
2022-11-19T16:11:54.853Z,7.52
2022-11-19T16:14:42.974Z,7.56
2022-11-19T16:17:41.673Z,7.53
2022-11-19T16:20:20.460Z,7.48
2022-11-19T16:22:53.800Z,7.35
2022-11-19T16:25:32.296Z,7.39
2022-11-19T16:28:03.105Z,7.48
2022-11-19T16:30:40.641Z,7.53
2022-11-19T16:33:15.888Z,7.55
2022-11-19T16:35:47.159Z,7.58
2022-11-19T16:38:23.113Z,7.56
2022-11-19T16:41:08.339Z,7.49
2022-11-19T16:43:37.427Z,7.51
2022-11-19T16:46:07.877Z,7.51
2022-11-19T16:49:00.252Z,7.52
2022-11-19T16:51:37.292Z,7.53
2022-11-19T16:54:06.896Z,7.51
2022-11-19T16:56:52.563Z,7.47
2022-11-19T16:59:23.827Z,7.38
2022-11-19T17:01:59.631Z,7.39
2022-11-19T17:04:31.410Z,7.35
2022-11-19T17:07:00.131Z,7.24
2022-11-19T17:09:41.541Z,7.29
2022-11-19T17:12:25.111Z,7.36
2022-11-19T17:14:59.039Z,7.40
2022-11-19T17:17:40.416Z,7.45
2022-11-19T17:20:45.141Z,7.38
2022-11-19T17:23:17.205Z,7.38
2022-11-19T17:25:50.507Z,7.31
2022-11-19T17:28:21.433Z,7.22
2022-11-19T17:30:50.466Z,7.17
2022-11-19T17:33:22.853Z,7.18
2022-11-19T17:35:52.104Z,7.18
2022-11-19T17:38:23.702Z,7.23
2022-11-19T17:40:53.190Z,7.29
2022-11-19T17:43:41.604Z,7.32
2022-11-19T17:46:09.318Z,7.29
2022-11-19T17:48:40.491Z,7.24
2022-11-19T17:51:10.754Z,7.30
2022-11-19T17:53:38.473Z,7.37
2022-11-19T17:56:06.963Z,7.32
2022-11-19T17:58:34.709Z,7.31
2022-11-19T18:01:02.540Z,7.18
2022-11-19T18:03:30.242Z,7.21
2022-11-19T18:06:01.335Z,7.15
2022-11-19T18:08:29.382Z,7.17
2022-11-19T18:10:57.277Z,7.08
2022-11-19T18:13:28.029Z,7.03
2022-11-19T18:15:55.727Z,7.07
2022-11-19T18:18:23.420Z,7.05
2022-11-19T18:20:51.560Z,7.11
2022-11-19T18:23:20.611Z,7.07
2022-11-19T18:25:48.314Z,7.10
2022-11-19T18:28:16.057Z,7.10
2022-11-19T18:30:43.985Z,6.98
2022-11-19T18:33:12.422Z,6.98
2022-11-19T18:35:40.121Z,6.96
2022-11-19T18:38:07.779Z,7.01
2022-11-19T18:40:37.019Z,6.97
2022-11-19T18:43:22.761Z,7.03
2022-11-19T18:45:50.423Z,7.10
2022-11-19T18:48:18.101Z,7.11
2022-11-19T18:50:45.959Z,7.18
2022-11-19T18:53:14.080Z,7.16
2022-11-19T18:55:43.109Z,7.09
2022-11-19T18:58:10.825Z,7.00
2022-11-19T19:00:38.507Z,6.99
2022-11-19T19:03:08.037Z,7.01
2022-11-19T19:05:35.742Z,7.02
2022-11-19T19:08:03.488Z,7.00
2022-11-19T19:10:31.204Z,7.03
2022-11-19T19:12:59.508Z,7.08
2022-11-19T19:15:27.280Z,7.04
2022-11-19T19:17:55.038Z,7.16
2022-11-19T19:20:22.740Z,7.14
2022-11-19T19:22:50.492Z,7.14
2022-11-19T19:25:18.299Z,7.14
2022-11-19T19:27:46.029Z,7.11
2022-11-19T19:30:16.007Z,7.11
2022-11-19T19:32:44.467Z,7.06
2022-11-19T19:35:12.204Z,7.00
2022-11-19T19:37:41.764Z,6.96
2022-11-19T19:40:11.020Z,6.98
2022-11-19T19:42:41.351Z,7.02
2022-11-19T19:45:10.076Z,7.08
2022-11-19T19:47:39.152Z,7.03
2022-11-19T19:50:07.836Z,7.06
2022-11-19T19:52:35.571Z,7.07
2022-11-19T19:55:03.379Z,7.03
2022-11-19T19:57:31.154Z,6.99
2022-11-19T19:59:59.657Z,6.98
2022-11-19T20:02:27.411Z,6.96
2022-11-19T20:04:56.453Z,6.97
2022-11-19T20:07:24.230Z,6.99
2022-11-19T20:09:51.975Z,7.00
2022-11-19T20:12:19.570Z,7.06
2022-11-19T20:14:47.713Z,7.00
2022-11-19T20:17:15.564Z,6.95
2022-11-19T20:19:43.277Z,6.90
2022-11-19T20:22:12.268Z,6.91
2022-11-19T20:24:39.971Z,6.86
2022-11-19T20:27:07.624Z,6.82
2022-11-19T20:29:35.267Z,6.84
2022-11-19T20:32:03.038Z,6.81
2022-11-19T20:34:30.747Z,6.79
2022-11-19T20:36:58.521Z,6.79
2022-11-19T20:39:27.573Z,6.75
2022-11-19T20:42:12.714Z,6.74
2022-11-19T20:44:40.494Z,6.97
2022-11-19T20:47:08.141Z,6.97
2022-11-19T20:49:38.058Z,6.91
2022-11-19T20:52:06.656Z,6.99
2022-11-19T20:54:35.748Z,6.98
2022-11-19T20:57:03.720Z,6.95
2022-11-19T20:59:31.736Z,6.89
2022-11-19T21:01:59.527Z,6.87
2022-11-19T21:04:28.454Z,6.81
2022-11-19T21:06:56.400Z,6.87
2022-11-19T21:09:24.771Z,6.91
2022-11-19T21:11:54.280Z,6.85
2022-11-19T21:14:22.160Z,6.91
2022-11-19T21:16:49.963Z,6.88
2022-11-19T21:19:17.898Z,6.95
2022-11-19T21:21:45.818Z,7.01
2022-11-19T21:24:13.757Z,6.93
2022-11-19T21:26:41.693Z,6.88
2022-11-19T21:29:10.886Z,6.86
2022-11-19T21:31:39.763Z,6.85
2022-11-19T21:34:08.769Z,6.74
2022-11-19T21:36:37.254Z,6.74
2022-11-19T21:39:06.054Z,6.70
2022-11-19T21:41:35.925Z,6.62
2022-11-19T21:44:04.286Z,6.64
2022-11-19T21:46:33.843Z,6.67
2022-11-19T21:49:01.782Z,6.70
2022-11-19T21:51:29.738Z,6.63
2022-11-19T21:53:58.690Z,6.60
2022-11-19T21:56:28.162Z,6.59
2022-11-19T21:58:55.876Z,6.60
2022-11-19T22:01:23.583Z,6.58
2022-11-19T22:03:52.601Z,6.51
2022-11-19T22:06:23.010Z,6.59
2022-11-19T22:08:50.680Z,6.51
2022-11-19T22:11:30.792Z,6.54
2022-11-19T22:14:00.533Z,6.59
2022-11-19T22:16:28.612Z,6.59
2022-11-19T22:18:57.701Z,6.54
2022-11-19T22:21:25.427Z,6.65
2022-11-19T22:23:53.622Z,6.77
2022-11-19T22:26:21.411Z,6.79
2022-11-19T22:28:49.121Z,6.85
2022-11-19T22:31:16.869Z,6.90
2022-11-19T22:33:44.613Z,6.88
2022-11-19T22:36:13.603Z,6.86
2022-11-19T22:38:41.288Z,6.81
2022-11-19T22:41:11.341Z,6.73
2022-11-19T22:43:40.153Z,6.62
2022-11-19T22:46:08.558Z,6.60
2022-11-19T22:48:37.289Z,6.51
2022-11-19T22:51:07.220Z,6.50
2022-11-19T22:53:36.636Z,6.55
2022-11-19T22:56:05.696Z,6.54
2022-11-19T22:58:33.446Z,6.57
2022-11-19T23:01:01.238Z,6.57
2022-11-19T23:03:29.131Z,6.62
2022-11-19T23:05:59.169Z,6.50
2022-11-19T23:08:27.206Z,6.50
2022-11-19T23:11:00.796Z,6.48
2022-11-19T23:13:32.056Z,6.45
2022-11-19T23:16:02.064Z,6.37
2022-11-19T23:18:31.390Z,6.45
2022-11-19T23:21:00.019Z,6.43
2022-11-19T23:23:28.345Z,6.53
2022-11-19T23:25:57.636Z,6.55
2022-11-19T23:28:27.252Z,6.47
2022-11-19T23:30:55.600Z,6.55
2022-11-19T23:33:23.883Z,6.50
2022-11-19T23:35:51.583Z,6.51
2022-11-19T23:38:19.297Z,6.51
2022-11-19T23:40:47.205Z,6.47
2022-11-19T23:43:14.942Z,6.46
2022-11-19T23:45:44.029Z,6.46
2022-11-19T23:48:11.692Z,6.50
2022-11-19T23:50:39.395Z,6.53
2022-11-19T23:53:07.279Z,6.47
2022-11-19T23:55:35.122Z,6.45
2022-11-19T23:58:02.823Z,6.46
